sensor_id;sensor_type;location;lat;lon;timestamp;temperature;humidity
7654;DHT22;3869;48.406;10.774;2023-07-22T00:00:49;16.20;99.90
7654;DHT22;3869;48.406;10.774;2023-07-22T00:03:18;16.20;99.90
7654;DHT22;3869;48.406;10.774;2023-07-22T00:05:46;16.20;99.90
7654;DHT22;3869;48.406;10.774;2023-07-22T00:08:14;16.20;99.90
7654;DHT22;3869;48.406;10.774;2023-07-22T00:10:42;16.20;99.90
7654;DHT22;3869;48.406;10.774;2023-07-22T00:13:10;16.10;99.90
7654;DHT22;3869;48.406;10.774;2023-07-22T00:15:39;16.00;99.90
7654;DHT22;3869;48.406;10.774;2023-07-22T00:18:08;15.90;99.90
7654;DHT22;3869;48.406;10.774;2023-07-22T00:20:37;16.00;99.90
7654;DHT22;3869;48.406;10.774;2023-07-22T00:23:05;16.00;99.90
7654;DHT22;3869;48.406;10.774;2023-07-22T00:25:33;16.00;99.90
7654;DHT22;3869;48.406;10.774;2023-07-22T00:28:01;16.00;99.90
7654;DHT22;3869;48.406;10.774;2023-07-22T00:30:30;16.50;99.90
7654;DHT22;3869;48.406;10.774;2023-07-22T00:33:00;15.80;99.90
7654;DHT22;3869;48.406;10.774;2023-07-22T00:35:28;15.70;99.90
7654;DHT22;3869;48.406;10.774;2023-07-22T00:37:56;15.60;99.90
7654;DHT22;3869;48.406;10.774;2023-07-22T00:40:24;15.50;99.90
7654;DHT22;3869;48.406;10.774;2023-07-22T00:42:52;15.50;99.90
7654;DHT22;3869;48.406;10.774;2023-07-22T00:45:20;15.50;99.90
7654;DHT22;3869;48.406;10.774;2023-07-22T00:47:49;15.60;99.90
7654;DHT22;3869;48.406;10.774;2023-07-22T00:50:18;15.60;99.90
7654;DHT22;3869;48.406;10.774;2023-07-22T00:52:46;15.60;99.90
7654;DHT22;3869;48.406;10.774;2023-07-22T00:55:14;15.60;99.90
7654;DHT22;3869;48.406;10.774;2023-07-22T00:57:42;15.60;99.90
7654;DHT22;3869;48.406;10.774;2023-07-22T01:00:11;15.50;99.90
7654;DHT22;3869;48.406;10.774;2023-07-22T01:02:40;15.50;99.90
7654;DHT22;3869;48.406;10.774;2023-07-22T01:05:08;15.50;99.90
7654;DHT22;3869;48.406;10.774;2023-07-22T01:07:39;15.50;99.90
7654;DHT22;3869;48.406;10.774;2023-07-22T01:10:08;15.50;99.90
7654;DHT22;3869;48.406;10.774;2023-07-22T01:12:36;15.40;99.90
7654;DHT22;3869;48.406;10.774;2023-07-22T01:15:05;15.30;99.90
7654;DHT22;3869;48.406;10.774;2023-07-22T01:17:37;15.20;99.90
7654;DHT22;3869;48.406;10.774;2023-07-22T01:20:06;15.20;99.90
7654;DHT22;3869;48.406;10.774;2023-07-22T01:22:36;15.30;99.90
7654;DHT22;3869;48.406;10.774;2023-07-22T01:25:07;15.30;99.90
7654;DHT22;3869;48.406;10.774;2023-07-22T01:27:35;15.30;99.90
7654;DHT22;3869;48.406;10.774;2023-07-22T01:30:04;15.30;99.90
7654;DHT22;3869;48.406;10.774;2023-07-22T01:32:33;15.20;99.90
7654;DHT22;3869;48.406;10.774;2023-07-22T01:35:01;15.30;99.90
7654;DHT22;3869;48.406;10.774;2023-07-22T01:37:29;15.30;99.90
7654;DHT22;3869;48.406;10.774;2023-07-22T01:39:58;15.30;99.90
7654;DHT22;3869;48.406;10.774;2023-07-22T01:42:28;15.30;99.90
7654;DHT22;3869;48.406;10.774;2023-07-22T01:44:56;15.30;99.90
7654;DHT22;3869;48.406;10.774;2023-07-22T01:47:24;15.30;99.90
7654;DHT22;3869;48.406;10.774;2023-07-22T01:49:53;15.10;99.90
7654;DHT22;3869;48.406;10.774;2023-07-22T01:52:21;15.00;99.90
7654;DHT22;3869;48.406;10.774;2023-07-22T01:54:49;14.80;99.90
7654;DHT22;3869;48.406;10.774;2023-07-22T01:57:17;14.80;99.90
7654;DHT22;3869;48.406;10.774;2023-07-22T01:59:46;14.80;99.90
7654;DHT22;3869;48.406;10.774;2023-07-22T02:02:14;14.80;99.90
7654;DHT22;3869;48.406;10.774;2023-07-22T02:04:42;14.90;99.90
7654;DHT22;3869;48.406;10.774;2023-07-22T02:07:11;14.90;99.90
7654;DHT22;3869;48.406;10.774;2023-07-22T02:09:39;14.80;99.90
7654;DHT22;3869;48.406;10.774;2023-07-22T02:12:08;14.80;99.90
7654;DHT22;3869;48.406;10.774;2023-07-22T02:14:37;14.80;99.90
7654;DHT22;3869;48.406;10.774;2023-07-22T02:17:06;14.90;99.90
7654;DHT22;3869;48.406;10.774;2023-07-22T02:19:36;14.90;99.90
7654;DHT22;3869;48.406;10.774;2023-07-22T02:22:04;15.00;99.90
7654;DHT22;3869;48.406;10.774;2023-07-22T02:24:32;14.90;99.90
7654;DHT22;3869;48.406;10.774;2023-07-22T02:27:00;14.90;99.90
7654;DHT22;3869;48.406;10.774;2023-07-22T02:29:28;14.80;99.90
7654;DHT22;3869;48.406;10.774;2023-07-22T02:31:58;14.70;99.90
7654;DHT22;3869;48.406;10.774;2023-07-22T02:34:27;14.70;99.90
7654;DHT22;3869;48.406;10.774;2023-07-22T02:36:55;14.70;99.90
7654;DHT22;3869;48.406;10.774;2023-07-22T02:39:23;14.60;99.90
7654;DHT22;3869;48.406;10.774;2023-07-22T02:41:51;14.70;99.90
7654;DHT22;3869;48.406;10.774;2023-07-22T02:44:19;14.70;99.90
7654;DHT22;3869;48.406;10.774;2023-07-22T02:46:47;14.70;99.90
7654;DHT22;3869;48.406;10.774;2023-07-22T02:49:16;14.80;99.90
7654;DHT22;3869;48.406;10.774;2023-07-22T02:51:45;14.80;99.90
7654;DHT22;3869;48.406;10.774;2023-07-22T02:54:13;14.80;99.90
7654;DHT22;3869;48.406;10.774;2023-07-22T02:56:41;14.80;99.90
7654;DHT22;3869;48.406;10.774;2023-07-22T02:59:09;14.90;99.90
7654;DHT22;3869;48.406;10.774;2023-07-22T03:01:38;14.90;99.90
7654;DHT22;3869;48.406;10.774;2023-07-22T03:04:06;14.80;99.90
7654;DHT22;3869;48.406;10.774;2023-07-22T03:06:34;14.70;99.90
7654;DHT22;3869;48.406;10.774;2023-07-22T03:09:04;14.70;99.90
7654;DHT22;3869;48.406;10.774;2023-07-22T03:11:33;14.70;99.90
7654;DHT22;3869;48.406;10.774;2023-07-22T03:14:01;14.80;99.90
7654;DHT22;3869;48.406;10.774;2023-07-22T03:16:29;14.80;99.90
7654;DHT22;3869;48.406;10.774;2023-07-22T03:18:58;14.80;99.90
7654;DHT22;3869;48.406;10.774;2023-07-22T03:21:26;14.80;99.90
7654;DHT22;3869;48.406;10.774;2023-07-22T03:23:54;14.70;99.90
7654;DHT22;3869;48.406;10.774;2023-07-22T03:26:24;14.80;99.90
7654;DHT22;3869;48.406;10.774;2023-07-22T03:28:52;14.70;99.90
7654;DHT22;3869;48.406;10.774;2023-07-22T03:31:21;14.80;99.90
7654;DHT22;3869;48.406;10.774;2023-07-22T03:33:49;14.80;99.90
7654;DHT22;3869;48.406;10.774;2023-07-22T03:36:17;14.80;99.90
7654;DHT22;3869;48.406;10.774;2023-07-22T03:38:45;14.60;99.90
7654;DHT22;3869;48.406;10.774;2023-07-22T03:41:13;14.50;99.90
7654;DHT22;3869;48.406;10.774;2023-07-22T03:43:42;14.50;99.90
7654;DHT22;3869;48.406;10.774;2023-07-22T03:46:10;14.50;99.90
7654;DHT22;3869;48.406;10.774;2023-07-22T03:48:38;14.50;99.90
7654;DHT22;3869;48.406;10.774;2023-07-22T03:51:06;14.50;99.90
7654;DHT22;3869;48.406;10.774;2023-07-22T03:53:46;14.60;99.90
7654;DHT22;3869;48.406;10.774;2023-07-22T03:56:14;14.60;99.90
7654;DHT22;3869;48.406;10.774;2023-07-22T03:58:43;14.60;99.90
7654;DHT22;3869;48.406;10.774;2023-07-22T04:01:11;14.60;99.90
7654;DHT22;3869;48.406;10.774;2023-07-22T04:03:40;14.70;99.90
7654;DHT22;3869;48.406;10.774;2023-07-22T04:06:08;14.70;99.90
7654;DHT22;3869;48.406;10.774;2023-07-22T04:08:36;14.70;99.90
7654;DHT22;3869;48.406;10.774;2023-07-22T04:11:04;14.70;99.90
7654;DHT22;3869;48.406;10.774;2023-07-22T04:13:32;14.70;99.90
7654;DHT22;3869;48.406;10.774;2023-07-22T04:16:01;14.70;99.90
7654;DHT22;3869;48.406;10.774;2023-07-22T04:18:29;14.60;99.90
7654;DHT22;3869;48.406;10.774;2023-07-22T04:21:01;14.60;99.90
7654;DHT22;3869;48.406;10.774;2023-07-22T04:23:29;14.60;99.90
7654;DHT22;3869;48.406;10.774;2023-07-22T04:26:02;14.60;99.90
7654;DHT22;3869;48.406;10.774;2023-07-22T04:28:31;14.70;99.90
7654;DHT22;3869;48.406;10.774;2023-07-22T04:31:00;14.70;99.90
7654;DHT22;3869;48.406;10.774;2023-07-22T04:33:29;14.70;99.90
7654;DHT22;3869;48.406;10.774;2023-07-22T04:35:58;14.70;99.90
7654;DHT22;3869;48.406;10.774;2023-07-22T04:38:27;14.70;99.90
7654;DHT22;3869;48.406;10.774;2023-07-22T04:40:55;14.70;99.90
7654;DHT22;3869;48.406;10.774;2023-07-22T04:43:23;14.70;99.90
7654;DHT22;3869;48.406;10.774;2023-07-22T04:45:51;14.80;99.90
7654;DHT22;3869;48.406;10.774;2023-07-22T04:48:21;14.80;99.90
7654;DHT22;3869;48.406;10.774;2023-07-22T04:50:50;14.80;99.90
7654;DHT22;3869;48.406;10.774;2023-07-22T04:53:19;14.90;99.90
7654;DHT22;3869;48.406;10.774;2023-07-22T04:55:47;14.90;99.90
7654;DHT22;3869;48.406;10.774;2023-07-22T04:58:15;14.90;99.90
7654;DHT22;3869;48.406;10.774;2023-07-22T05:00:43;15.00;99.90
7654;DHT22;3869;48.406;10.774;2023-07-22T05:03:11;15.10;99.90
7654;DHT22;3869;48.406;10.774;2023-07-22T05:05:42;15.10;99.90
7654;DHT22;3869;48.406;10.774;2023-07-22T05:08:10;15.20;99.90
7654;DHT22;3869;48.406;10.774;2023-07-22T05:10:39;15.20;99.90
7654;DHT22;3869;48.406;10.774;2023-07-22T05:13:07;15.30;99.90
7654;DHT22;3869;48.406;10.774;2023-07-22T05:15:35;15.30;99.90
7654;DHT22;3869;48.406;10.774;2023-07-22T05:18:03;15.40;99.90
7654;DHT22;3869;48.406;10.774;2023-07-22T05:20:31;15.50;99.90
7654;DHT22;3869;48.406;10.774;2023-07-22T05:23:00;15.60;99.90
7654;DHT22;3869;48.406;10.774;2023-07-22T05:25:28;15.70;99.90
7654;DHT22;3869;48.406;10.774;2023-07-22T05:27:56;15.80;99.90
7654;DHT22;3869;48.406;10.774;2023-07-22T05:30:24;15.80;99.90
7654;DHT22;3869;48.406;10.774;2023-07-22T05:33:01;15.90;99.90
7654;DHT22;3869;48.406;10.774;2023-07-22T05:35:29;15.90;99.90
7654;DHT22;3869;48.406;10.774;2023-07-22T05:37:57;16.00;99.90
7654;DHT22;3869;48.406;10.774;2023-07-22T05:40:27;16.10;99.90
7654;DHT22;3869;48.406;10.774;2023-07-22T05:42:55;16.20;99.90
7654;DHT22;3869;48.406;10.774;2023-07-22T05:45:23;16.30;99.90
7654;DHT22;3869;48.406;10.774;2023-07-22T05:47:51;16.40;99.90
7654;DHT22;3869;48.406;10.774;2023-07-22T05:50:19;16.50;99.90
7654;DHT22;3869;48.406;10.774;2023-07-22T05:52:47;16.50;99.90
7654;DHT22;3869;48.406;10.774;2023-07-22T05:55:16;16.60;99.90
7654;DHT22;3869;48.406;10.774;2023-07-22T05:57:45;16.60;99.90
7654;DHT22;3869;48.406;10.774;2023-07-22T06:00:14;16.70;99.90
7654;DHT22;3869;48.406;10.774;2023-07-22T06:02:42;16.70;99.90
7654;DHT22;3869;48.406;10.774;2023-07-22T06:05:10;16.80;99.90
7654;DHT22;3869;48.406;10.774;2023-07-22T06:07:38;16.80;99.90
7654;DHT22;3869;48.406;10.774;2023-07-22T06:10:06;16.90;99.90
7654;DHT22;3869;48.406;10.774;2023-07-22T06:12:35;16.90;99.90
7654;DHT22;3869;48.406;10.774;2023-07-22T06:15:06;17.00;99.90
7654;DHT22;3869;48.406;10.774;2023-07-22T06:17:34;17.00;99.90
7654;DHT22;3869;48.406;10.774;2023-07-22T06:20:03;17.10;99.90
7654;DHT22;3869;48.406;10.774;2023-07-22T06:22:31;17.10;99.90
7654;DHT22;3869;48.406;10.774;2023-07-22T06:24:59;17.20;99.90
7654;DHT22;3869;48.406;10.774;2023-07-22T06:27:27;17.30;99.90
7654;DHT22;3869;48.406;10.774;2023-07-22T06:29:55;17.40;99.90
7654;DHT22;3869;48.406;10.774;2023-07-22T06:32:26;17.40;99.90
7654;DHT22;3869;48.406;10.774;2023-07-22T06:34:57;17.50;99.90
7654;DHT22;3869;48.406;10.774;2023-07-22T06:37:25;17.60;99.90
7654;DHT22;3869;48.406;10.774;2023-07-22T06:39:53;17.60;99.90
7654;DHT22;3869;48.406;10.774;2023-07-22T06:42:21;17.70;99.90
7654;DHT22;3869;48.406;10.774;2023-07-22T06:44:49;17.80;99.90
7654;DHT22;3869;48.406;10.774;2023-07-22T06:47:17;17.80;99.90
7654;DHT22;3869;48.406;10.774;2023-07-22T06:49:47;17.90;99.90
7654;DHT22;3869;48.406;10.774;2023-07-22T06:52:15;17.90;99.90
7654;DHT22;3869;48.406;10.774;2023-07-22T06:54:43;18.00;99.90
7654;DHT22;3869;48.406;10.774;2023-07-22T06:57:10;18.00;99.90
7654;DHT22;3869;48.406;10.774;2023-07-22T06:59:38;18.10;99.90
7654;DHT22;3869;48.406;10.774;2023-07-22T07:02:06;18.20;99.90
7654;DHT22;3869;48.406;10.774;2023-07-22T07:04:34;18.20;99.90
7654;DHT22;3869;48.406;10.774;2023-07-22T07:07:04;18.30;99.90
7654;DHT22;3869;48.406;10.774;2023-07-22T07:09:34;18.40;99.90
7654;DHT22;3869;48.406;10.774;2023-07-22T07:12:02;18.40;99.90
7654;DHT22;3869;48.406;10.774;2023-07-22T07:14:32;18.50;99.90
7654;DHT22;3869;48.406;10.774;2023-07-22T07:17:00;18.50;99.90
7654;DHT22;3869;48.406;10.774;2023-07-22T07:19:28;18.60;99.90
7654;DHT22;3869;48.406;10.774;2023-07-22T07:21:56;18.60;99.90
7654;DHT22;3869;48.406;10.774;2023-07-22T07:24:26;18.70;99.90
7654;DHT22;3869;48.406;10.774;2023-07-22T07:26:54;18.70;99.90
7654;DHT22;3869;48.406;10.774;2023-07-22T07:29:22;18.70;99.90
7654;DHT22;3869;48.406;10.774;2023-07-22T07:32:10;18.80;99.90
7654;DHT22;3869;48.406;10.774;2023-07-22T07:34:38;18.80;99.90
7654;DHT22;3869;48.406;10.774;2023-07-22T07:37:06;18.90;99.90
7654;DHT22;3869;48.406;10.774;2023-07-22T07:39:35;18.90;99.90
7654;DHT22;3869;48.406;10.774;2023-07-22T07:42:05;18.90;99.90
7654;DHT22;3869;48.406;10.774;2023-07-22T07:44:33;19.00;99.90
7654;DHT22;3869;48.406;10.774;2023-07-22T07:47:01;19.00;99.90
7654;DHT22;3869;48.406;10.774;2023-07-22T07:49:29;19.10;99.90
7654;DHT22;3869;48.406;10.774;2023-07-22T07:51:57;19.10;99.90
7654;DHT22;3869;48.406;10.774;2023-07-22T07:54:25;19.10;99.90
7654;DHT22;3869;48.406;10.774;2023-07-22T07:56:54;19.10;99.90
7654;DHT22;3869;48.406;10.774;2023-07-22T07:59:22;19.20;99.90
7654;DHT22;3869;48.406;10.774;2023-07-22T08:01:50;19.20;99.90
7654;DHT22;3869;48.406;10.774;2023-07-22T08:04:18;19.20;99.90
7654;DHT22;3869;48.406;10.774;2023-07-22T08:06:46;19.30;99.90
7654;DHT22;3869;48.406;10.774;2023-07-22T08:09:14;19.30;99.90
7654;DHT22;3869;48.406;10.774;2023-07-22T08:11:46;19.30;99.90
7654;DHT22;3869;48.406;10.774;2023-07-22T08:14:15;19.40;99.90
7654;DHT22;3869;48.406;10.774;2023-07-22T08:16:43;19.40;99.90
7654;DHT22;3869;48.406;10.774;2023-07-22T08:19:11;19.50;99.90
7654;DHT22;3869;48.406;10.774;2023-07-22T08:21:39;19.40;99.90
7654;DHT22;3869;48.406;10.774;2023-07-22T08:24:07;19.40;99.90
7654;DHT22;3869;48.406;10.774;2023-07-22T08:26:35;19.50;99.90
7654;DHT22;3869;48.406;10.774;2023-07-22T08:29:03;19.60;99.90
7654;DHT22;3869;48.406;10.774;2023-07-22T08:31:33;19.70;99.90
7654;DHT22;3869;48.406;10.774;2023-07-22T08:34:01;19.70;99.90
7654;DHT22;3869;48.406;10.774;2023-07-22T08:36:29;19.70;99.90
7654;DHT22;3869;48.406;10.774;2023-07-22T08:38:57;19.70;99.80
7654;DHT22;3869;48.406;10.774;2023-07-22T08:41:25;19.70;99.80
7654;DHT22;3869;48.406;10.774;2023-07-22T08:43:54;19.70;99.50
7654;DHT22;3869;48.406;10.774;2023-07-22T08:46:23;19.80;99.90
7654;DHT22;3869;48.406;10.774;2023-07-22T08:48:56;19.90;99.90
7654;DHT22;3869;48.406;10.774;2023-07-22T08:51:27;19.90;98.90
7654;DHT22;3869;48.406;10.774;2023-07-22T08:53:56;20.00;98.90
7654;DHT22;3869;48.406;10.774;2023-07-22T08:56:38;20.10;99.20
7654;DHT22;3869;48.406;10.774;2023-07-22T08:59:06;20.20;99.20
7654;DHT22;3869;48.406;10.774;2023-07-22T09:01:34;20.30;98.80
7654;DHT22;3869;48.406;10.774;2023-07-22T09:04:05;20.30;97.90
7654;DHT22;3869;48.406;10.774;2023-07-22T09:06:34;20.30;98.10
7654;DHT22;3869;48.406;10.774;2023-07-22T09:09:03;20.30;96.80
7654;DHT22;3869;48.406;10.774;2023-07-22T09:11:35;20.30;96.60
7654;DHT22;3869;48.406;10.774;2023-07-22T09:14:03;20.40;96.60
7654;DHT22;3869;48.406;10.774;2023-07-22T09:16:32;20.30;95.90
7654;DHT22;3869;48.406;10.774;2023-07-22T09:19:04;20.30;95.30
7654;DHT22;3869;48.406;10.774;2023-07-22T09:21:33;20.40;95.40
7654;DHT22;3869;48.406;10.774;2023-07-22T09:24:20;20.40;94.90
7654;DHT22;3869;48.406;10.774;2023-07-22T09:26:49;20.50;95.10
7654;DHT22;3869;48.406;10.774;2023-07-22T09:29:17;20.50;95.50
7654;DHT22;3869;48.406;10.774;2023-07-22T09:31:50;20.50;95.20
7654;DHT22;3869;48.406;10.774;2023-07-22T09:34:19;20.50;95.30
7654;DHT22;3869;48.406;10.774;2023-07-22T09:36:50;20.40;95.50
7654;DHT22;3869;48.406;10.774;2023-07-22T09:39:19;20.40;95.60
7654;DHT22;3869;48.406;10.774;2023-07-22T09:41:47;20.40;94.70
7654;DHT22;3869;48.406;10.774;2023-07-22T09:44:15;20.40;95.00
7654;DHT22;3869;48.406;10.774;2023-07-22T09:46:47;20.40;94.90
7654;DHT22;3869;48.406;10.774;2023-07-22T09:49:17;20.50;94.40
7654;DHT22;3869;48.406;10.774;2023-07-22T09:51:46;20.50;94.30
7654;DHT22;3869;48.406;10.774;2023-07-22T09:54:28;20.50;94.20
7654;DHT22;3869;48.406;10.774;2023-07-22T09:56:58;20.60;93.50
7654;DHT22;3869;48.406;10.774;2023-07-22T09:59:29;20.60;93.70
7654;DHT22;3869;48.406;10.774;2023-07-22T10:01:57;20.70;93.90
7654;DHT22;3869;48.406;10.774;2023-07-22T10:04:32;20.90;93.80
7654;DHT22;3869;48.406;10.774;2023-07-22T10:07:03;21.00;93.40
7654;DHT22;3869;48.406;10.774;2023-07-22T10:09:33;21.00;92.70
7654;DHT22;3869;48.406;10.774;2023-07-22T10:12:05;21.00;92.50
7654;DHT22;3869;48.406;10.774;2023-07-22T10:14:34;21.00;92.80
7654;DHT22;3869;48.406;10.774;2023-07-22T10:17:05;21.10;93.30
7654;DHT22;3869;48.406;10.774;2023-07-22T10:19:34;21.10;93.10
7654;DHT22;3869;48.406;10.774;2023-07-22T10:22:04;21.10;93.10
7654;DHT22;3869;48.406;10.774;2023-07-22T10:24:35;21.00;93.10
7654;DHT22;3869;48.406;10.774;2023-07-22T10:27:04;21.10;93.40
7654;DHT22;3869;48.406;10.774;2023-07-22T10:29:33;21.10;93.20
7654;DHT22;3869;48.406;10.774;2023-07-22T10:32:02;21.20;93.20
7654;DHT22;3869;48.406;10.774;2023-07-22T10:34:31;21.20;92.90
7654;DHT22;3869;48.406;10.774;2023-07-22T10:36:59;21.30;92.90
7654;DHT22;3869;48.406;10.774;2023-07-22T10:39:28;21.40;91.90
7654;DHT22;3869;48.406;10.774;2023-07-22T10:42:00;21.50;92.10
7654;DHT22;3869;48.406;10.774;2023-07-22T10:44:32;21.60;91.90
7654;DHT22;3869;48.406;10.774;2023-07-22T10:47:00;21.80;91.60
7654;DHT22;3869;48.406;10.774;2023-07-22T10:49:43;21.80;90.90
7654;DHT22;3869;48.406;10.774;2023-07-22T10:52:11;22.00;91.70
7654;DHT22;3869;48.406;10.774;2023-07-22T10:54:42;22.20;90.80
7654;DHT22;3869;48.406;10.774;2023-07-22T10:57:23;22.30;91.10
7654;DHT22;3869;48.406;10.774;2023-07-22T10:59:52;22.20;90.70
7654;DHT22;3869;48.406;10.774;2023-07-22T11:02:24;22.20;91.00
7654;DHT22;3869;48.406;10.774;2023-07-22T11:04:56;22.40;91.40
7654;DHT22;3869;48.406;10.774;2023-07-22T11:07:33;22.50;91.10
7654;DHT22;3869;48.406;10.774;2023-07-22T11:10:14;22.40;90.10
7654;DHT22;3869;48.406;10.774;2023-07-22T11:12:43;22.60;90.20
7654;DHT22;3869;48.406;10.774;2023-07-22T11:15:15;22.50;89.90
7654;DHT22;3869;48.406;10.774;2023-07-22T11:17:43;22.50;89.80
7654;DHT22;3869;48.406;10.774;2023-07-22T11:20:11;22.50;90.20
7654;DHT22;3869;48.406;10.774;2023-07-22T11:22:39;22.50;89.60
7654;DHT22;3869;48.406;10.774;2023-07-22T11:25:08;22.60;90.10
7654;DHT22;3869;48.406;10.774;2023-07-22T11:27:38;22.70;90.70
7654;DHT22;3869;48.406;10.774;2023-07-22T11:30:06;22.70;90.30
7654;DHT22;3869;48.406;10.774;2023-07-22T11:32:42;22.70;90.00
7654;DHT22;3869;48.406;10.774;2023-07-22T11:35:10;22.70;90.50
7654;DHT22;3869;48.406;10.774;2023-07-22T11:37:38;22.80;90.70
7654;DHT22;3869;48.406;10.774;2023-07-22T11:40:09;22.90;90.70
7654;DHT22;3869;48.406;10.774;2023-07-22T11:42:40;22.90;90.70
7654;DHT22;3869;48.406;10.774;2023-07-22T11:45:08;22.90;90.00
7654;DHT22;3869;48.406;10.774;2023-07-22T11:47:37;23.00;88.30
7654;DHT22;3869;48.406;10.774;2023-07-22T11:50:06;23.20;89.10
7654;DHT22;3869;48.406;10.774;2023-07-22T11:52:34;23.40;90.30
7654;DHT22;3869;48.406;10.774;2023-07-22T11:55:03;23.40;89.80
7654;DHT22;3869;48.406;10.774;2023-07-22T11:57:31;23.40;89.20
7654;DHT22;3869;48.406;10.774;2023-07-22T12:00:00;23.40;89.20
7654;DHT22;3869;48.406;10.774;2023-07-22T12:02:28;23.40;88.90
7654;DHT22;3869;48.406;10.774;2023-07-22T12:05:00;23.50;88.60
7654;DHT22;3869;48.406;10.774;2023-07-22T12:07:29;23.50;89.90
7654;DHT22;3869;48.406;10.774;2023-07-22T12:09:58;23.60;89.60
7654;DHT22;3869;48.406;10.774;2023-07-22T12:12:33;23.80;88.00
7654;DHT22;3869;48.406;10.774;2023-07-22T12:15:09;23.80;87.00
7654;DHT22;3869;48.406;10.774;2023-07-22T12:17:45;23.60;86.20
7654;DHT22;3869;48.406;10.774;2023-07-22T12:20:14;23.60;87.10
7654;DHT22;3869;48.406;10.774;2023-07-22T12:22:42;23.70;87.90
7654;DHT22;3869;48.406;10.774;2023-07-22T12:25:10;23.70;88.10
7654;DHT22;3869;48.406;10.774;2023-07-22T12:27:38;23.60;85.30
7654;DHT22;3869;48.406;10.774;2023-07-22T12:30:08;23.60;86.50
7654;DHT22;3869;48.406;10.774;2023-07-22T12:32:37;23.70;88.50
7654;DHT22;3869;48.406;10.774;2023-07-22T12:35:06;23.60;86.40
7654;DHT22;3869;48.406;10.774;2023-07-22T12:37:35;23.60;87.70
7654;DHT22;3869;48.406;10.774;2023-07-22T12:40:03;23.70;86.70
7654;DHT22;3869;48.406;10.774;2023-07-22T12:42:35;23.80;87.30
7654;DHT22;3869;48.406;10.774;2023-07-22T12:45:04;23.80;86.90
7654;DHT22;3869;48.406;10.774;2023-07-22T12:47:34;23.90;87.60
7654;DHT22;3869;48.406;10.774;2023-07-22T12:50:03;24.10;89.20
7654;DHT22;3869;48.406;10.774;2023-07-22T12:52:31;24.30;89.00
7654;DHT22;3869;48.406;10.774;2023-07-22T12:54:59;24.30;86.30
7654;DHT22;3869;48.406;10.774;2023-07-22T12:57:27;24.30;83.90
7654;DHT22;3869;48.406;10.774;2023-07-22T12:59:55;24.30;84.50
7654;DHT22;3869;48.406;10.774;2023-07-22T13:02:23;24.30;85.30
7654;DHT22;3869;48.406;10.774;2023-07-22T13:04:53;24.50;85.80
7654;DHT22;3869;48.406;10.774;2023-07-22T13:07:21;24.60;83.50
7654;DHT22;3869;48.406;10.774;2023-07-22T13:09:49;24.70;84.40
7654;DHT22;3869;48.406;10.774;2023-07-22T13:12:20;24.80;85.00
7654;DHT22;3869;48.406;10.774;2023-07-22T13:14:48;25.00;85.00
7654;DHT22;3869;48.406;10.774;2023-07-22T13:17:16;25.00;82.00
7654;DHT22;3869;48.406;10.774;2023-07-22T13:19:44;25.10;85.50
7654;DHT22;3869;48.406;10.774;2023-07-22T13:22:13;25.20;84.20
7654;DHT22;3869;48.406;10.774;2023-07-22T13:24:41;25.10;82.60
7654;DHT22;3869;48.406;10.774;2023-07-22T13:27:09;25.00;83.50
7654;DHT22;3869;48.406;10.774;2023-07-22T13:29:37;24.80;82.20
7654;DHT22;3869;48.406;10.774;2023-07-22T13:32:06;24.70;84.20
7654;DHT22;3869;48.406;10.774;2023-07-22T13:34:34;24.70;84.90
7654;DHT22;3869;48.406;10.774;2023-07-22T13:37:03;24.60;83.50
7654;DHT22;3869;48.406;10.774;2023-07-22T13:39:32;24.50;84.00
7654;DHT22;3869;48.406;10.774;2023-07-22T13:42:00;24.60;84.20
7654;DHT22;3869;48.406;10.774;2023-07-22T13:44:28;24.80;85.70
7654;DHT22;3869;48.406;10.774;2023-07-22T13:46:56;24.80;83.10
7654;DHT22;3869;48.406;10.774;2023-07-22T13:49:24;25.00;87.60
7654;DHT22;3869;48.406;10.774;2023-07-22T13:51:52;25.10;87.00
7654;DHT22;3869;48.406;10.774;2023-07-22T13:54:20;25.10;84.40
7654;DHT22;3869;48.406;10.774;2023-07-22T13:56:49;25.20;83.80
7654;DHT22;3869;48.406;10.774;2023-07-22T13:59:17;25.30;84.70
7654;DHT22;3869;48.406;10.774;2023-07-22T14:01:45;25.20;82.70
7654;DHT22;3869;48.406;10.774;2023-07-22T14:04:13;25.20;83.90
7654;DHT22;3869;48.406;10.774;2023-07-22T14:06:41;25.20;84.50
7654;DHT22;3869;48.406;10.774;2023-07-22T14:09:09;25.20;85.30
7654;DHT22;3869;48.406;10.774;2023-07-22T14:11:37;25.10;84.70
7654;DHT22;3869;48.406;10.774;2023-07-22T14:14:09;25.10;84.90
7654;DHT22;3869;48.406;10.774;2023-07-22T14:16:37;25.00;84.20
7654;DHT22;3869;48.406;10.774;2023-07-22T14:19:05;25.00;85.20
7654;DHT22;3869;48.406;10.774;2023-07-22T14:21:34;25.00;86.60
7654;DHT22;3869;48.406;10.774;2023-07-22T14:24:02;25.10;86.10
7654;DHT22;3869;48.406;10.774;2023-07-22T14:26:31;25.10;83.60
7654;DHT22;3869;48.406;10.774;2023-07-22T14:28:59;25.20;84.50
7654;DHT22;3869;48.406;10.774;2023-07-22T14:31:28;25.30;85.70
7654;DHT22;3869;48.406;10.774;2023-07-22T14:33:57;25.30;83.30
7654;DHT22;3869;48.406;10.774;2023-07-22T14:36:25;25.30;84.40
7654;DHT22;3869;48.406;10.774;2023-07-22T14:38:53;25.20;84.90
7654;DHT22;3869;48.406;10.774;2023-07-22T14:41:22;25.20;83.80
7654;DHT22;3869;48.406;10.774;2023-07-22T14:43:51;25.10;84.60
7654;DHT22;3869;48.406;10.774;2023-07-22T14:46:19;25.10;85.20
7654;DHT22;3869;48.406;10.774;2023-07-22T14:48:49;25.10;84.50
7654;DHT22;3869;48.406;10.774;2023-07-22T14:51:17;25.10;84.80
7654;DHT22;3869;48.406;10.774;2023-07-22T14:53:45;25.10;83.50
7654;DHT22;3869;48.406;10.774;2023-07-22T14:56:13;25.20;84.70
7654;DHT22;3869;48.406;10.774;2023-07-22T14:58:41;25.20;84.30
7654;DHT22;3869;48.406;10.774;2023-07-22T15:01:09;25.20;81.40
7654;DHT22;3869;48.406;10.774;2023-07-22T15:03:38;25.10;80.80
7654;DHT22;3869;48.406;10.774;2023-07-22T15:06:07;25.10;82.20
7654;DHT22;3869;48.406;10.774;2023-07-22T15:08:35;25.10;83.50
7654;DHT22;3869;48.406;10.774;2023-07-22T15:11:03;25.20;84.20
7654;DHT22;3869;48.406;10.774;2023-07-22T15:13:31;25.20;84.10
7654;DHT22;3869;48.406;10.774;2023-07-22T15:15:59;25.30;82.50
7654;DHT22;3869;48.406;10.774;2023-07-22T15:18:27;25.30;83.30
7654;DHT22;3869;48.406;10.774;2023-07-22T15:20:55;25.20;82.10
7654;DHT22;3869;48.406;10.774;2023-07-22T15:23:25;25.20;83.20
7654;DHT22;3869;48.406;10.774;2023-07-22T15:25:53;25.10;83.00
7654;DHT22;3869;48.406;10.774;2023-07-22T15:28:21;25.00;82.70
7654;DHT22;3869;48.406;10.774;2023-07-22T15:30:49;24.90;82.80
7654;DHT22;3869;48.406;10.774;2023-07-22T15:33:17;24.80;81.80
7654;DHT22;3869;48.406;10.774;2023-07-22T15:35:45;24.80;82.80
7654;DHT22;3869;48.406;10.774;2023-07-22T15:38:13;24.80;83.80
7654;DHT22;3869;48.406;10.774;2023-07-22T15:40:42;24.80;84.40
7654;DHT22;3869;48.406;10.774;2023-07-22T15:43:11;24.80;84.30
7654;DHT22;3869;48.406;10.774;2023-07-22T15:45:39;24.70;84.20
7654;DHT22;3869;48.406;10.774;2023-07-22T15:48:07;24.60;83.90
7654;DHT22;3869;48.406;10.774;2023-07-22T15:50:35;24.60;85.00
7654;DHT22;3869;48.406;10.774;2023-07-22T15:53:03;24.70;87.10
7654;DHT22;3869;48.406;10.774;2023-07-22T15:55:31;24.60;85.90